sensor_id;sensor_type;location;lat;lon;timestamp;temperature;humidity
60495;DHT22;46342;49.046;11.920;2023-05-29T00:00:16;16.60;39.40
60495;DHT22;46342;49.046;11.920;2023-05-29T00:02:43;16.50;39.40
60495;DHT22;46342;49.046;11.920;2023-05-29T00:05:13;16.50;39.50
60495;DHT22;46342;49.046;11.920;2023-05-29T00:07:40;16.40;39.50
60495;DHT22;46342;49.046;11.920;2023-05-29T00:10:07;16.40;40.30
60495;DHT22;46342;49.046;11.920;2023-05-29T00:12:33;16.40;39.70
60495;DHT22;46342;49.046;11.920;2023-05-29T00:14:59;16.40;39.70
60495;DHT22;46342;49.046;11.920;2023-05-29T00:17:25;16.30;39.70
60495;DHT22;46342;49.046;11.920;2023-05-29T00:19:50;16.30;39.70
60495;DHT22;46342;49.046;11.920;2023-05-29T00:22:16;16.30;39.80
60495;DHT22;46342;49.046;11.920;2023-05-29T00:24:42;16.30;39.90
60495;DHT22;46342;49.046;11.920;2023-05-29T00:27:07;16.20;39.90
60495;DHT22;46342;49.046;11.920;2023-05-29T00:29:34;16.20;40.00
60495;DHT22;46342;49.046;11.920;2023-05-29T00:32:01;16.20;40.10
60495;DHT22;46342;49.046;11.920;2023-05-29T00:34:27;16.10;40.10
60495;DHT22;46342;49.046;11.920;2023-05-29T00:36:52;16.10;40.20
60495;DHT22;46342;49.046;11.920;2023-05-29T00:39:20;16.10;40.30
60495;DHT22;46342;49.046;11.920;2023-05-29T00:41:45;16.00;40.30
60495;DHT22;46342;49.046;11.920;2023-05-29T00:44:11;16.00;40.40
60495;DHT22;46342;49.046;11.920;2023-05-29T00:46:36;16.00;40.50
60495;DHT22;46342;49.046;11.920;2023-05-29T00:49:04;16.00;40.50
60495;DHT22;46342;49.046;11.920;2023-05-29T00:51:30;15.90;40.70
60495;DHT22;46342;49.046;11.920;2023-05-29T00:53:57;15.90;40.60
60495;DHT22;46342;49.046;11.920;2023-05-29T00:56:24;15.80;40.60
60495;DHT22;46342;49.046;11.920;2023-05-29T00:58:51;15.80;40.60
60495;DHT22;46342;49.046;11.920;2023-05-29T01:01:20;15.70;40.70
60495;DHT22;46342;49.046;11.920;2023-05-29T01:03:49;15.70;41.00
60495;DHT22;46342;49.046;11.920;2023-05-29T01:06:18;15.80;40.80
60495;DHT22;46342;49.046;11.920;2023-05-29T01:08:45;15.70;40.80
60495;DHT22;46342;49.046;11.920;2023-05-29T01:11:31;15.70;40.80
60495;DHT22;46342;49.046;11.920;2023-05-29T01:14:02;15.70;41.80
60495;DHT22;46342;49.046;11.920;2023-05-29T01:16:38;15.70;41.10
60495;DHT22;46342;49.046;11.920;2023-05-29T01:22:11;15.70;42.20
60495;DHT22;46342;49.046;11.920;2023-05-29T01:24:50;15.70;42.80
60495;DHT22;46342;49.046;11.920;2023-05-29T01:27:21;15.60;42.00
60495;DHT22;46342;49.046;11.920;2023-05-29T01:29:52;15.60;41.40
60495;DHT22;46342;49.046;11.920;2023-05-29T01:32:20;15.60;41.40
60495;DHT22;46342;49.046;11.920;2023-05-29T01:34:46;15.50;41.40
60495;DHT22;46342;49.046;11.920;2023-05-29T01:37:12;15.50;41.30
60495;DHT22;46342;49.046;11.920;2023-05-29T01:39:38;15.50;41.30
60495;DHT22;46342;49.046;11.920;2023-05-29T01:42:09;15.50;41.50
60495;DHT22;46342;49.046;11.920;2023-05-29T01:44:35;15.50;42.10
60495;DHT22;46342;49.046;11.920;2023-05-29T01:47:02;15.40;41.60
60495;DHT22;46342;49.046;11.920;2023-05-29T01:49:28;15.40;41.70
60495;DHT22;46342;49.046;11.920;2023-05-29T01:51:55;15.40;41.80
60495;DHT22;46342;49.046;11.920;2023-05-29T01:54:20;15.30;41.70
60495;DHT22;46342;49.046;11.920;2023-05-29T01:56:46;15.30;41.80
60495;DHT22;46342;49.046;11.920;2023-05-29T01:59:13;15.30;41.80
60495;DHT22;46342;49.046;11.920;2023-05-29T02:01:39;15.30;41.80
60495;DHT22;46342;49.046;11.920;2023-05-29T02:04:05;15.20;41.80
60495;DHT22;46342;49.046;11.920;2023-05-29T02:06:31;15.20;41.80
60495;DHT22;46342;49.046;11.920;2023-05-29T02:08:58;15.20;41.90
60495;DHT22;46342;49.046;11.920;2023-05-29T02:11:24;15.20;42.00
60495;DHT22;46342;49.046;11.920;2023-05-29T02:13:51;15.20;42.10
60495;DHT22;46342;49.046;11.920;2023-05-29T02:16:17;15.10;42.10
60495;DHT22;46342;49.046;11.920;2023-05-29T02:18:46;15.10;42.20
60495;DHT22;46342;49.046;11.920;2023-05-29T02:21:12;15.10;42.30
60495;DHT22;46342;49.046;11.920;2023-05-29T02:23:37;15.00;42.20
60495;DHT22;46342;49.046;11.920;2023-05-29T02:26:03;15.00;42.30
60495;DHT22;46342;49.046;11.920;2023-05-29T02:28:28;15.00;42.30
60495;DHT22;46342;49.046;11.920;2023-05-29T02:30:54;15.00;42.40
60495;DHT22;46342;49.046;11.920;2023-05-29T02:33:19;14.90;42.30
60495;DHT22;46342;49.046;11.920;2023-05-29T02:35:45;14.90;42.40
60495;DHT22;46342;49.046;11.920;2023-05-29T02:38:11;14.90;42.50
60495;DHT22;46342;49.046;11.920;2023-05-29T02:40:36;14.90;42.50
60495;DHT22;46342;49.046;11.920;2023-05-29T02:43:02;14.90;42.60
60495;DHT22;46342;49.046;11.920;2023-05-29T02:45:28;14.80;42.60
60495;DHT22;46342;49.046;11.920;2023-05-29T02:47:53;14.80;42.60
60495;DHT22;46342;49.046;11.920;2023-05-29T02:50:19;14.80;42.60
60495;DHT22;46342;49.046;11.920;2023-05-29T02:52:44;14.70;42.60
60495;DHT22;46342;49.046;11.920;2023-05-29T02:55:10;14.70;42.70
60495;DHT22;46342;49.046;11.920;2023-05-29T02:57:36;14.60;42.70
60495;DHT22;46342;49.046;11.920;2023-05-29T03:00:01;14.60;42.80
60495;DHT22;46342;49.046;11.920;2023-05-29T03:02:30;14.60;42.80
60495;DHT22;46342;49.046;11.920;2023-05-29T03:04:56;14.50;42.80
60495;DHT22;46342;49.046;11.920;2023-05-29T03:07:22;14.50;42.90
60495;DHT22;46342;49.046;11.920;2023-05-29T03:09:47;14.40;42.90
60495;DHT22;46342;49.046;11.920;2023-05-29T03:12:13;14.40;42.90
60495;DHT22;46342;49.046;11.920;2023-05-29T03:14:38;14.40;43.00
60495;DHT22;46342;49.046;11.920;2023-05-29T03:17:05;14.30;43.00
60495;DHT22;46342;49.046;11.920;2023-05-29T03:19:30;14.30;43.10
60495;DHT22;46342;49.046;11.920;2023-05-29T03:21:56;14.30;43.20
60495;DHT22;46342;49.046;11.920;2023-05-29T03:24:21;14.30;43.20
60495;DHT22;46342;49.046;11.920;2023-05-29T03:26:49;14.20;43.20
60495;DHT22;46342;49.046;11.920;2023-05-29T03:29:15;14.20;43.20
60495;DHT22;46342;49.046;11.920;2023-05-29T03:31:41;14.20;43.30
60495;DHT22;46342;49.046;11.920;2023-05-29T03:34:07;14.10;43.30
60495;DHT22;46342;49.046;11.920;2023-05-29T03:36:33;14.00;43.30
60495;DHT22;46342;49.046;11.920;2023-05-29T03:38:58;14.10;43.40
60495;DHT22;46342;49.046;11.920;2023-05-29T03:41:24;14.10;43.50
60495;DHT22;46342;49.046;11.920;2023-05-29T03:43:50;14.00;43.50
60495;DHT22;46342;49.046;11.920;2023-05-29T03:46:16;14.00;43.60
60495;DHT22;46342;49.046;11.920;2023-05-29T03:48:42;14.00;43.70
60495;DHT22;46342;49.046;11.920;2023-05-29T03:51:07;14.00;43.70
60495;DHT22;46342;49.046;11.920;2023-05-29T03:53:33;13.90;43.80
60495;DHT22;46342;49.046;11.920;2023-05-29T03:55:58;13.90;43.80
60495;DHT22;46342;49.046;11.920;2023-05-29T03:58:24;13.90;43.90
60495;DHT22;46342;49.046;11.920;2023-05-29T04:00:50;13.90;43.90
60495;DHT22;46342;49.046;11.920;2023-05-29T04:03:15;13.90;44.00
60495;DHT22;46342;49.046;11.920;2023-05-29T04:05:41;13.80;44.00
60495;DHT22;46342;49.046;11.920;2023-05-29T04:08:06;13.80;44.00
60495;DHT22;46342;49.046;11.920;2023-05-29T04:10:34;13.80;44.10
60495;DHT22;46342;49.046;11.920;2023-05-29T04:13:00;13.80;44.00
60495;DHT22;46342;49.046;11.920;2023-05-29T04:15:27;13.80;44.20
60495;DHT22;46342;49.046;11.920;2023-05-29T04:17:53;13.80;44.30
60495;DHT22;46342;49.046;11.920;2023-05-29T04:20:18;13.80;44.40
60495;DHT22;46342;49.046;11.920;2023-05-29T04:22:44;13.80;44.40
60495;DHT22;46342;49.046;11.920;2023-05-29T04:25:10;13.70;44.40
60495;DHT22;46342;49.046;11.920;2023-05-29T04:27:35;13.70;44.40
60495;DHT22;46342;49.046;11.920;2023-05-29T04:30:06;13.70;44.50
60495;DHT22;46342;49.046;11.920;2023-05-29T04:32:32;13.70;44.90
60495;DHT22;46342;49.046;11.920;2023-05-29T04:34:58;13.70;44.60
60495;DHT22;46342;49.046;11.920;2023-05-29T04:37:31;13.70;44.60
60495;DHT22;46342;49.046;11.920;2023-05-29T04:40:01;13.70;44.70
60495;DHT22;46342;49.046;11.920;2023-05-29T04:42:30;13.70;44.70
60495;DHT22;46342;49.046;11.920;2023-05-29T04:44:59;13.70;44.80
60495;DHT22;46342;49.046;11.920;2023-05-29T04:47:25;13.70;44.90
60495;DHT22;46342;49.046;11.920;2023-05-29T04:49:51;13.70;44.90
60495;DHT22;46342;49.046;11.920;2023-05-29T04:52:17;13.70;45.00
60495;DHT22;46342;49.046;11.920;2023-05-29T04:54:43;13.70;45.10
60495;DHT22;46342;49.046;11.920;2023-05-29T04:57:08;13.80;45.20
60495;DHT22;46342;49.046;11.920;2023-05-29T04:59:34;13.80;45.30
60495;DHT22;46342;49.046;11.920;2023-05-29T05:02:00;13.80;45.40
60495;DHT22;46342;49.046;11.920;2023-05-29T05:04:26;13.90;45.60
60495;DHT22;46342;49.046;11.920;2023-05-29T05:06:52;13.90;45.50
60495;DHT22;46342;49.046;11.920;2023-05-29T05:09:17;13.90;45.60
60495;DHT22;46342;49.046;11.920;2023-05-29T05:11:43;14.00;45.80
60495;DHT22;46342;49.046;11.920;2023-05-29T05:14:08;14.10;45.90
60495;DHT22;46342;49.046;11.920;2023-05-29T05:16:34;14.10;45.90
60495;DHT22;46342;49.046;11.920;2023-05-29T05:19:00;14.20;46.00
60495;DHT22;46342;49.046;11.920;2023-05-29T05:21:25;14.20;46.00
60495;DHT22;46342;49.046;11.920;2023-05-29T05:23:51;14.30;46.10
60495;DHT22;46342;49.046;11.920;2023-05-29T05:26:16;14.40;46.10
60495;DHT22;46342;49.046;11.920;2023-05-29T05:28:42;14.40;46.10
60495;DHT22;46342;49.046;11.920;2023-05-29T05:31:08;14.50;46.20
60495;DHT22;46342;49.046;11.920;2023-05-29T05:33:34;14.60;46.20
60495;DHT22;46342;49.046;11.920;2023-05-29T05:36:00;14.70;46.30
60495;DHT22;46342;49.046;11.920;2023-05-29T05:38:25;14.70;46.20
60495;DHT22;46342;49.046;11.920;2023-05-29T05:40:51;14.80;46.30
60495;DHT22;46342;49.046;11.920;2023-05-29T05:43:17;14.80;46.30
60495;DHT22;46342;49.046;11.920;2023-05-29T05:45:42;14.90;46.40
60495;DHT22;46342;49.046;11.920;2023-05-29T05:48:08;15.00;46.30
60495;DHT22;46342;49.046;11.920;2023-05-29T05:50:34;15.10;46.40
60495;DHT22;46342;49.046;11.920;2023-05-29T05:53:00;15.10;46.40
60495;DHT22;46342;49.046;11.920;2023-05-29T05:55:25;15.20;46.40
60495;DHT22;46342;49.046;11.920;2023-05-29T05:57:53;15.30;46.50
60495;DHT22;46342;49.046;11.920;2023-05-29T06:00:19;15.40;46.50
60495;DHT22;46342;49.046;11.920;2023-05-29T06:02:44;15.40;46.50
60495;DHT22;46342;49.046;11.920;2023-05-29T06:05:10;15.50;46.50
60495;DHT22;46342;49.046;11.920;2023-05-29T06:07:37;15.60;46.50
60495;DHT22;46342;49.046;11.920;2023-05-29T06:10:03;15.60;46.40
60495;DHT22;46342;49.046;11.920;2023-05-29T06:12:29;15.70;46.40
60495;DHT22;46342;49.046;11.920;2023-05-29T06:14:55;15.80;46.50
60495;DHT22;46342;49.046;11.920;2023-05-29T06:17:21;15.90;46.50
60495;DHT22;46342;49.046;11.920;2023-05-29T06:19:47;16.00;46.60
60495;DHT22;46342;49.046;11.920;2023-05-29T06:22:13;16.00;46.60
60495;DHT22;46342;49.046;11.920;2023-05-29T06:24:39;16.10;46.60
60495;DHT22;46342;49.046;11.920;2023-05-29T06:27:04;16.20;46.70
60495;DHT22;46342;49.046;11.920;2023-05-29T06:29:31;16.30;46.70
60495;DHT22;46342;49.046;11.920;2023-05-29T06:31:57;16.40;46.70
60495;DHT22;46342;49.046;11.920;2023-05-29T06:34:23;16.40;46.60
60495;DHT22;46342;49.046;11.920;2023-05-29T06:36:48;16.50;46.60
60495;DHT22;46342;49.046;11.920;2023-05-29T06:39:14;16.60;46.70
60495;DHT22;46342;49.046;11.920;2023-05-29T06:41:40;16.60;46.60
60495;DHT22;46342;49.046;11.920;2023-05-29T06:44:06;16.70;46.60
60495;DHT22;46342;49.046;11.920;2023-05-29T06:46:32;16.80;46.60
60495;DHT22;46342;49.046;11.920;2023-05-29T06:48:57;16.90;46.60
60495;DHT22;46342;49.046;11.920;2023-05-29T06:51:23;17.00;46.60
60495;DHT22;46342;49.046;11.920;2023-05-29T06:53:49;17.10;46.70
60495;DHT22;46342;49.046;11.920;2023-05-29T06:56:14;17.20;46.60
60495;DHT22;46342;49.046;11.920;2023-05-29T06:58:40;17.20;46.40
60495;DHT22;46342;49.046;11.920;2023-05-29T07:01:05;17.30;46.50
60495;DHT22;46342;49.046;11.920;2023-05-29T07:03:31;17.40;46.50
60495;DHT22;46342;49.046;11.920;2023-05-29T07:05:57;17.50;46.50
60495;DHT22;46342;49.046;11.920;2023-05-29T07:08:23;17.60;46.50
60495;DHT22;46342;49.046;11.920;2023-05-29T07:10:49;17.70;46.60
60495;DHT22;46342;49.046;11.920;2023-05-29T07:13:16;17.80;46.40
60495;DHT22;46342;49.046;11.920;2023-05-29T07:15:42;17.90;46.40
60495;DHT22;46342;49.046;11.920;2023-05-29T07:18:07;17.90;46.40
60495;DHT22;46342;49.046;11.920;2023-05-29T07:20:33;18.00;46.30
60495;DHT22;46342;49.046;11.920;2023-05-29T07:22:59;18.20;46.40
60495;DHT22;46342;49.046;11.920;2023-05-29T07:25:24;18.20;46.20
60495;DHT22;46342;49.046;11.920;2023-05-29T07:27:50;18.30;46.10
60495;DHT22;46342;49.046;11.920;2023-05-29T07:30:16;18.40;46.10
60495;DHT22;46342;49.046;11.920;2023-05-29T07:32:41;18.50;46.00
60495;DHT22;46342;49.046;11.920;2023-05-29T07:35:07;18.60;46.00
60495;DHT22;46342;49.046;11.920;2023-05-29T07:37:34;18.70;46.00
60495;DHT22;46342;49.046;11.920;2023-05-29T07:40:00;18.80;46.00
60495;DHT22;46342;49.046;11.920;2023-05-29T07:42:25;18.90;45.90
60495;DHT22;46342;49.046;11.920;2023-05-29T07:44:51;19.00;45.70
60495;DHT22;46342;49.046;11.920;2023-05-29T07:47:17;19.10;45.60
60495;DHT22;46342;49.046;11.920;2023-05-29T07:49:42;19.20;45.50
60495;DHT22;46342;49.046;11.920;2023-05-29T07:52:08;19.30;45.40
60495;DHT22;46342;49.046;11.920;2023-05-29T07:54:33;19.40;45.30
60495;DHT22;46342;49.046;11.920;2023-05-29T07:57:00;19.50;45.40
60495;DHT22;46342;49.046;11.920;2023-05-29T07:59:26;19.60;45.40
60495;DHT22;46342;49.046;11.920;2023-05-29T08:01:51;19.60;45.20
60495;DHT22;46342;49.046;11.920;2023-05-29T08:04:17;19.80;45.10
60495;DHT22;46342;49.046;11.920;2023-05-29T08:06:43;19.90;45.00
60495;DHT22;46342;49.046;11.920;2023-05-29T08:09:09;20.00;44.90
60495;DHT22;46342;49.046;11.920;2023-05-29T08:11:36;20.10;44.80
60495;DHT22;46342;49.046;11.920;2023-05-29T08:14:02;20.20;44.70
60495;DHT22;46342;49.046;11.920;2023-05-29T08:16:28;20.20;45.00
60495;DHT22;46342;49.046;11.920;2023-05-29T08:18:54;20.30;44.30
60495;DHT22;46342;49.046;11.920;2023-05-29T08:21:20;20.40;44.00
60495;DHT22;46342;49.046;11.920;2023-05-29T08:23:46;20.50;44.50
60495;DHT22;46342;49.046;11.920;2023-05-29T08:26:11;20.70;43.80
60495;DHT22;46342;49.046;11.920;2023-05-29T08:28:38;20.70;44.40
60495;DHT22;46342;49.046;11.920;2023-05-29T08:31:03;20.80;43.70
60495;DHT22;46342;49.046;11.920;2023-05-29T08:33:29;20.90;43.60
60495;DHT22;46342;49.046;11.920;2023-05-29T08:35:58;21.00;43.40
60495;DHT22;46342;49.046;11.920;2023-05-29T08:38:23;21.10;43.50
60495;DHT22;46342;49.046;11.920;2023-05-29T08:40:51;21.10;43.30
60495;DHT22;46342;49.046;11.920;2023-05-29T08:43:23;21.30;43.30
60495;DHT22;46342;49.046;11.920;2023-05-29T08:45:54;21.40;42.90
60495;DHT22;46342;49.046;11.920;2023-05-29T08:48:23;21.40;42.70
60495;DHT22;46342;49.046;11.920;2023-05-29T08:50:53;21.50;42.70
60495;DHT22;46342;49.046;11.920;2023-05-29T08:53:19;21.60;42.60
60495;DHT22;46342;49.046;11.920;2023-05-29T08:55:46;21.70;42.80
60495;DHT22;46342;49.046;11.920;2023-05-29T08:58:13;21.80;43.40
60495;DHT22;46342;49.046;11.920;2023-05-29T09:00:39;21.90;42.60
60495;DHT22;46342;49.046;11.920;2023-05-29T09:03:06;21.90;42.40
60495;DHT22;46342;49.046;11.920;2023-05-29T09:05:34;22.00;42.20
60495;DHT22;46342;49.046;11.920;2023-05-29T09:08:04;22.10;42.10
60495;DHT22;46342;49.046;11.920;2023-05-29T09:10:30;22.20;41.90
60495;DHT22;46342;49.046;11.920;2023-05-29T09:12:56;22.30;41.80
60495;DHT22;46342;49.046;11.920;2023-05-29T09:15:23;22.40;41.70
60495;DHT22;46342;49.046;11.920;2023-05-29T09:17:53;22.50;41.50
60495;DHT22;46342;49.046;11.920;2023-05-29T09:20:20;22.60;41.10
60495;DHT22;46342;49.046;11.920;2023-05-29T09:25:24;22.70;40.30
60495;DHT22;46342;49.046;11.920;2023-05-29T09:27:56;22.70;40.70
60495;DHT22;46342;49.046;11.920;2023-05-29T09:30:37;22.80;40.70
60495;DHT22;46342;49.046;11.920;2023-05-29T09:33:04;22.90;40.20
60495;DHT22;46342;49.046;11.920;2023-05-29T09:35:41;23.00;41.00
60495;DHT22;46342;49.046;11.920;2023-05-29T09:38:11;23.10;40.60
60495;DHT22;46342;49.046;11.920;2023-05-29T09:40:39;23.20;40.60
60495;DHT22;46342;49.046;11.920;2023-05-29T09:43:16;23.20;40.70
60495;DHT22;46342;49.046;11.920;2023-05-29T09:45:49;23.30;39.80
60495;DHT22;46342;49.046;11.920;2023-05-29T09:48:17;23.40;40.00
60495;DHT22;46342;49.046;11.920;2023-05-29T09:50:44;23.50;40.10
60495;DHT22;46342;49.046;11.920;2023-05-29T09:53:20;23.60;40.10
60495;DHT22;46342;49.046;11.920;2023-05-29T09:55:48;23.70;40.00
60495;DHT22;46342;49.046;11.920;2023-05-29T09:58:15;23.70;40.10
60495;DHT22;46342;49.046;11.920;2023-05-29T10:00:44;23.80;40.00
60495;DHT22;46342;49.046;11.920;2023-05-29T10:03:12;23.90;39.80
60495;DHT22;46342;49.046;11.920;2023-05-29T10:05:43;24.00;40.00
60495;DHT22;46342;49.046;11.920;2023-05-29T10:08:12;24.10;39.70
60495;DHT22;46342;49.046;11.920;2023-05-29T10:10:40;24.20;39.40
60495;DHT22;46342;49.046;11.920;2023-05-29T10:13:10;24.30;38.90
60495;DHT22;46342;49.046;11.920;2023-05-29T10:15:37;24.40;38.50
60495;DHT22;46342;49.046;11.920;2023-05-29T10:18:07;24.50;39.50
60495;DHT22;46342;49.046;11.920;2023-05-29T10:20:38;24.60;38.90
60495;DHT22;46342;49.046;11.920;2023-05-29T10:23:04;24.70;38.90
60495;DHT22;46342;49.046;11.920;2023-05-29T10:25:32;24.80;38.80
60495;DHT22;46342;49.046;11.920;2023-05-29T10:27:59;24.90;38.40
60495;DHT22;46342;49.046;11.920;2023-05-29T10:30:46;25.00;38.10
60495;DHT22;46342;49.046;11.920;2023-05-29T10:33:37;25.10;37.20
60495;DHT22;46342;49.046;11.920;2023-05-29T10:36:13;25.20;37.40
60495;DHT22;46342;49.046;11.920;2023-05-29T10:38:41;25.30;37.90
60495;DHT22;46342;49.046;11.920;2023-05-29T10:43:56;25.50;37.60
60495;DHT22;46342;49.046;11.920;2023-05-29T10:46:28;25.50;37.20
60495;DHT22;46342;49.046;11.920;2023-05-29T10:49:24;25.60;37.30
60495;DHT22;46342;49.046;11.920;2023-05-29T10:51:50;25.70;36.10
60495;DHT22;46342;49.046;11.920;2023-05-29T10:54:16;25.80;36.70
60495;DHT22;46342;49.046;11.920;2023-05-29T10:56:51;25.90;36.70
60495;DHT22;46342;49.046;11.920;2023-05-29T10:59:17;26.00;36.50
60495;DHT22;46342;49.046;11.920;2023-05-29T11:01:43;26.10;36.30
60495;DHT22;46342;49.046;11.920;2023-05-29T11:06:51;26.30;35.80
60495;DHT22;46342;49.046;11.920;2023-05-29T11:09:34;26.40;35.90
60495;DHT22;46342;49.046;11.920;2023-05-29T11:12:14;26.50;34.20
60495;DHT22;46342;49.046;11.920;2023-05-29T11:14:56;26.60;34.70
60495;DHT22;46342;49.046;11.920;2023-05-29T11:20:00;26.80;34.60
60495;DHT22;46342;49.046;11.920;2023-05-29T11:22:33;26.90;35.00
60495;DHT22;46342;49.046;11.920;2023-05-29T11:25:07;26.90;34.50
60495;DHT22;46342;49.046;11.920;2023-05-29T11:27:33;27.00;34.90
60495;DHT22;46342;49.046;11.920;2023-05-29T11:29:59;27.10;34.70
60495;DHT22;46342;49.046;11.920;2023-05-29T11:32:27;27.20;34.60
60495;DHT22;46342;49.046;11.920;2023-05-29T11:34:56;27.30;34.40
60495;DHT22;46342;49.046;11.920;2023-05-29T11:37:24;27.30;34.50
60495;DHT22;46342;49.046;11.920;2023-05-29T11:39:51;27.40;34.70
60495;DHT22;46342;49.046;11.920;2023-05-29T11:42:16;27.50;34.70
60495;DHT22;46342;49.046;11.920;2023-05-29T11:44:42;27.60;34.60
60495;DHT22;46342;49.046;11.920;2023-05-29T11:47:08;27.70;34.50
60495;DHT22;46342;49.046;11.920;2023-05-29T11:49:37;27.80;34.40
60495;DHT22;46342;49.046;11.920;2023-05-29T11:52:07;27.90;33.90
60495;DHT22;46342;49.046;11.920;2023-05-29T11:54:33;27.90;33.70
60495;DHT22;46342;49.046;11.920;2023-05-29T11:57:00;28.00;34.00
60495;DHT22;46342;49.046;11.920;2023-05-29T11:59:29;28.10;33.80
60495;DHT22;46342;49.046;11.920;2023-05-29T12:01:55;28.20;33.20
60495;DHT22;46342;49.046;11.920;2023-05-29T12:04:20;28.20;33.40
60495;DHT22;46342;49.046;11.920;2023-05-29T12:06:46;28.20;33.50
60495;DHT22;46342;49.046;11.920;2023-05-29T12:09:27;28.30;33.60
60495;DHT22;46342;49.046;11.920;2023-05-29T12:12:03;28.40;32.90
60495;DHT22;46342;49.046;11.920;2023-05-29T12:14:29;28.40;33.20
60495;DHT22;46342;49.046;11.920;2023-05-29T12:16:54;28.40;33.10
60495;DHT22;46342;49.046;11.920;2023-05-29T12:19:20;28.50;32.80
60495;DHT22;46342;49.046;11.920;2023-05-29T12:21:46;28.50;32.80
60495;DHT22;46342;49.046;11.920;2023-05-29T12:24:11;28.60;32.70
60495;DHT22;46342;49.046;11.920;2023-05-29T12:26:37;28.60;32.60
60495;DHT22;46342;49.046;11.920;2023-05-29T12:29:04;28.70;32.20
60495;DHT22;46342;49.046;11.920;2023-05-29T12:31:32;28.70;32.10
60495;DHT22;46342;49.046;11.920;2023-05-29T12:34:10;28.80;32.30
60495;DHT22;46342;49.046;11.920;2023-05-29T12:36:35;28.80;32.10
60495;DHT22;46342;49.046;11.920;2023-05-29T12:39:05;28.90;32.40
60495;DHT22;46342;49.046;11.920;2023-05-29T12:41:35;29.00;31.70
60495;DHT22;46342;49.046;11.920;2023-05-29T12:44:01;29.10;32.00
60495;DHT22;46342;49.046;11.920;2023-05-29T12:46:27;29.30;32.10
60495;DHT22;46342;49.046;11.920;2023-05-29T12:48:54;29.30;32.00
60495;DHT22;46342;49.046;11.920;2023-05-29T12:51:27;29.30;31.60
60495;DHT22;46342;49.046;11.920;2023-05-29T12:53:53;29.40;30.80
60495;DHT22;46342;49.046;11.920;2023-05-29T12:56:21;29.40;31.10
60495;DHT22;46342;49.046;11.920;2023-05-29T12:58:48;29.50;31.00
60495;DHT22;46342;49.046;11.920;2023-05-29T13:01:14;29.50;30.90
60495;DHT22;46342;49.046;11.920;2023-05-29T13:03:40;29.50;30.50
60495;DHT22;46342;49.046;11.920;2023-05-29T13:06:06;29.50;30.30
60495;DHT22;46342;49.046;11.920;2023-05-29T13:08:32;29.50;30.20
60495;DHT22;46342;49.046;11.920;2023-05-29T13:10:58;29.50;30.10
60495;DHT22;46342;49.046;11.920;2023-05-29T13:13:23;29.60;30.20
60495;DHT22;46342;49.046;11.920;2023-05-29T13:15:49;29.60;30.10
60495;DHT22;46342;49.046;11.920;2023-05-29T13:18:14;29.60;30.20
60495;DHT22;46342;49.046;11.920;2023-05-29T13:20:40;29.70;30.20
60495;DHT22;46342;49.046;11.920;2023-05-29T13:23:06;29.70;30.30
60495;DHT22;46342;49.046;11.920;2023-05-29T13:25:32;29.80;30.20
60495;DHT22;46342;49.046;11.920;2023-05-29T13:27:58;29.80;30.00
60495;DHT22;46342;49.046;11.920;2023-05-29T13:30:23;29.90;29.80
60495;DHT22;46342;49.046;11.920;2023-05-29T13:32:50;29.90;29.60
60495;DHT22;46342;49.046;11.920;2023-05-29T13:35:16;29.90;29.40
60495;DHT22;46342;49.046;11.920;2023-05-29T13:37:42;30.10;29.60
60495;DHT22;46342;49.046;11.920;2023-05-29T13:40:09;30.00;29.50
60495;DHT22;46342;49.046;11.920;2023-05-29T13:42:35;30.00;29.30
60495;DHT22;46342;49.046;11.920;2023-05-29T13:45:01;30.00;29.20
60495;DHT22;46342;49.046;11.920;2023-05-29T13:47:27;30.00;29.30
60495;DHT22;46342;49.046;11.920;2023-05-29T13:49:54;30.00;29.40
60495;DHT22;46342;49.046;11.920;2023-05-29T13:52:19;30.10;29.30
60495;DHT22;46342;49.046;11.920;2023-05-29T13:54:45;30.10;29.70
60495;DHT22;46342;49.046;11.920;2023-05-29T13:57:10;30.10;29.10
60495;DHT22;46342;49.046;11.920;2023-05-29T13:59:36;30.20;29.10
60495;DHT22;46342;49.046;11.920;2023-05-29T14:02:02;30.20;29.10
60495;DHT22;46342;49.046;11.920;2023-05-29T14:04:29;30.20;28.90
60495;DHT22;46342;49.046;11.920;2023-05-29T14:06:55;30.30;29.00
60495;DHT22;46342;49.046;11.920;2023-05-29T14:09:22;30.30;28.60
60495;DHT22;46342;49.046;11.920;2023-05-29T14:11:57;30.30;28.50
60495;DHT22;46342;49.046;11.920;2023-05-29T14:14:24;30.30;28.40
60495;DHT22;46342;49.046;11.920;2023-05-29T14:16:51;30.40;28.40
60495;DHT22;46342;49.046;11.920;2023-05-29T14:19:21;30.40;28.40
60495;DHT22;46342;49.046;11.920;2023-05-29T14:21:46;30.40;28.40
60495;DHT22;46342;49.046;11.920;2023-05-29T14:24:12;30.50;28.30
60495;DHT22;46342;49.046;11.920;2023-05-29T14:26:38;30.50;28.30
60495;DHT22;46342;49.046;11.920;2023-05-29T14:29:04;30.60;28.30
60495;DHT22;46342;49.046;11.920;2023-05-29T14:31:30;30.60;28.10
60495;DHT22;46342;49.046;11.920;2023-05-29T14:33:56;30.60;28.10
60495;DHT22;46342;49.046;11.920;2023-05-29T14:36:21;30.60;27.80
60495;DHT22;46342;49.046;11.920;2023-05-29T14:38:47;30.70;27.70
60495;DHT22;46342;49.046;11.920;2023-05-29T14:41:14;30.70;27.70
60495;DHT22;46342;49.046;11.920;2023-05-29T14:43:41;30.70;27.50
60495;DHT22;46342;49.046;11.920;2023-05-29T14:46:07;30.80;27.30
60495;DHT22;46342;49.046;11.920;2023-05-29T14:48:33;30.80;28.00
60495;DHT22;46342;49.046;11.920;2023-05-29T14:50:58;30.80;27.50
60495;DHT22;46342;49.046;11.920;2023-05-29T14:53:24;30.90;27.50
60495;DHT22;46342;49.046;11.920;2023-05-29T14:55:50;30.90;27.40
60495;DHT22;46342;49.046;11.920;2023-05-29T14:58:15;31.00;27.20
60495;DHT22;46342;49.046;11.920;2023-05-29T15:00:41;31.00;27.30
60495;DHT22;46342;49.046;11.920;2023-05-29T15:03:07;31.10;27.10
60495;DHT22;46342;49.046;11.920;2023-05-29T15:05:32;31.10;27.10
60495;DHT22;46342;49.046;11.920;2023-05-29T15:07:58;31.10;27.00
60495;DHT22;46342;49.046;11.920;2023-05-29T15:10:25;31.20;26.90
60495;DHT22;46342;49.046;11.920;2023-05-29T15:12:52;31.30;27.10
60495;DHT22;46342;49.046;11.920;2023-05-29T15:15:25;31.30;26.80
60495;DHT22;46342;49.046;11.920;2023-05-29T15:17:52;31.30;26.80
60495;DHT22;46342;49.046;11.920;2023-05-29T15:20:24;31.30;26.70
60495;DHT22;46342;49.046;11.920;2023-05-29T15:22:50;31.30;26.50
60495;DHT22;46342;49.046;11.920;2023-05-29T15:25:17;31.30;26.40
60495;DHT22;46342;49.046;11.920;2023-05-29T15:27:43;31.30;26.30